sensor_id;sensor_type;location;lat;lon;timestamp;pressure;altitude;pressure_sealevel;temperature;humidity
59419;BME280;45224;50.904;6.038;2023-04-28T00:00:01;99482.84;;;11.99;59.35
59419;BME280;45224;50.904;6.038;2023-04-28T00:01:35;99475.91;;;12.01;59.17
59419;BME280;45224;50.904;6.038;2023-04-28T00:03:05;99464.75;;;11.94;59.82
59419;BME280;45224;50.904;6.038;2023-04-28T00:04:36;99472.53;;;11.93;59.25
59419;BME280;45224;50.904;6.038;2023-04-28T00:06:06;99467.34;;;11.96;58.88
59419;BME280;45224;50.904;6.038;2023-04-28T00:07:37;99472.47;;;12.00;59.28
59419;BME280;45224;50.904;6.038;2023-04-28T00:09:07;99464.72;;;11.99;59.00
59419;BME280;45224;50.904;6.038;2023-04-28T00:10:41;99472.47;;;12.02;59.44
59419;BME280;45224;50.904;6.038;2023-04-28T00:12:11;99465.56;;;11.98;60.07
59419;BME280;45224;50.904;6.038;2023-04-28T00:13:42;99462.16;;;11.94;59.88
59419;BME280;45224;50.904;6.038;2023-04-28T00:15:12;99458.72;;;11.91;61.07
59419;BME280;45224;50.904;6.038;2023-04-28T00:16:43;99457.00;;;11.93;60.45
59419;BME280;45224;50.904;6.038;2023-04-28T00:18:13;99458.72;;;11.95;60.51
59419;BME280;45224;50.904;6.038;2023-04-28T00:19:44;99455.25;;;11.93;60.90
59419;BME280;45224;50.904;6.038;2023-04-28T00:21:14;99453.56;;;11.91;60.89
59419;BME280;45224;50.904;6.038;2023-04-28T00:22:44;99456.16;;;11.89;61.42
59419;BME280;45224;50.904;6.038;2023-04-28T00:24:15;99447.56;;;11.85;62.10
59419;BME280;45224;50.904;6.038;2023-04-28T00:25:52;99446.69;;;11.83;63.14
59419;BME280;45224;50.904;6.038;2023-04-28T00:27:23;99446.69;;;11.83;62.72
59419;BME280;45224;50.904;6.038;2023-04-28T00:28:54;99455.38;;;11.82;62.29
59419;BME280;45224;50.904;6.038;2023-04-28T00:30:24;99454.50;;;11.80;63.07
59419;BME280;45224;50.904;6.038;2023-04-28T00:31:55;99450.16;;;11.85;62.73
59419;BME280;45224;50.904;6.038;2023-04-28T00:33:25;99456.19;;;11.86;63.13
59419;BME280;45224;50.904;6.038;2023-04-28T00:34:56;99456.22;;;11.83;63.46
59419;BME280;45224;50.904;6.038;2023-04-28T00:36:27;99451.91;;;11.80;63.02
59419;BME280;45224;50.904;6.038;2023-04-28T00:38:01;99448.41;;;11.86;62.86
59419;BME280;45224;50.904;6.038;2023-04-28T00:39:32;99438.09;;;11.81;63.26
59419;BME280;45224;50.904;6.038;2023-04-28T00:41:02;99434.66;;;11.82;63.96
59419;BME280;45224;50.904;6.038;2023-04-28T00:42:33;99437.22;;;11.82;63.52
59419;BME280;45224;50.904;6.038;2023-04-28T00:44:03;99440.69;;;11.81;64.46
59419;BME280;45224;50.904;6.038;2023-04-28T00:45:34;99434.63;;;11.84;63.87
59419;BME280;45224;50.904;6.038;2023-04-28T00:47:05;99424.28;;;11.84;63.80
59419;BME280;45224;50.904;6.038;2023-04-28T00:48:37;99431.16;;;11.85;64.61
59419;BME280;45224;50.904;6.038;2023-04-28T00:50:08;99438.91;;;11.85;65.03
59419;BME280;45224;50.904;6.038;2023-04-28T00:51:39;99432.81;;;11.91;63.77
59419;BME280;45224;50.904;6.038;2023-04-28T00:53:11;99430.25;;;11.87;64.48
59419;BME280;45224;50.904;6.038;2023-04-28T00:54:41;99432.88;;;11.84;64.96
59419;BME280;45224;50.904;6.038;2023-04-28T00:56:12;99429.50;;;11.78;65.94
59419;BME280;45224;50.904;6.038;2023-04-28T00:57:43;99433.78;;;11.80;65.48
59419;BME280;45224;50.904;6.038;2023-04-28T00:59:14;99437.25;;;11.79;66.44
59419;BME280;45224;50.904;6.038;2023-04-28T01:00:44;99439.88;;;11.76;67.87
59419;BME280;45224;50.904;6.038;2023-04-28T01:02:15;99436.47;;;11.73;67.52
59419;BME280;45224;50.904;6.038;2023-04-28T01:03:46;99437.34;;;11.72;67.41
59419;BME280;45224;50.904;6.038;2023-04-28T01:05:18;99421.84;;;11.67;68.32
59419;BME280;45224;50.904;6.038;2023-04-28T01:06:51;99434.78;;;11.67;68.99
59419;BME280;45224;50.904;6.038;2023-04-28T01:08:23;99421.84;;;11.67;68.06
59419;BME280;45224;50.904;6.038;2023-04-28T01:09:57;99423.56;;;11.69;67.97
59419;BME280;45224;50.904;6.038;2023-04-28T01:11:33;99426.16;;;11.68;68.43
59419;BME280;45224;50.904;6.038;2023-04-28T01:13:10;99427.91;;;11.66;68.77
59419;BME280;45224;50.904;6.038;2023-04-28T01:14:42;99424.53;;;11.58;72.34
59419;BME280;45224;50.904;6.038;2023-04-28T01:16:12;99424.53;;;11.58;70.33
59419;BME280;45224;50.904;6.038;2023-04-28T01:17:44;99423.63;;;11.62;69.76
59419;BME280;45224;50.904;6.038;2023-04-28T01:19:20;99414.09;;;11.64;70.57
59419;BME280;45224;50.904;6.038;2023-04-28T01:20:55;99414.09;;;11.64;70.26
59419;BME280;45224;50.904;6.038;2023-04-28T01:22:26;99415.84;;;11.65;71.39
59419;BME280;45224;50.904;6.038;2023-04-28T01:23:57;99406.31;;;11.65;71.76
59419;BME280;45224;50.904;6.038;2023-04-28T01:25:28;99403.72;;;11.67;70.47
59419;BME280;45224;50.904;6.038;2023-04-28T01:26:58;99397.72;;;11.63;71.85
59419;BME280;45224;50.904;6.038;2023-04-28T01:28:29;99402.06;;;11.61;71.23
59419;BME280;45224;50.904;6.038;2023-04-28T01:29:59;99399.50;;;11.58;72.03
59419;BME280;45224;50.904;6.038;2023-04-28T01:31:30;99407.31;;;11.54;72.41
59419;BME280;45224;50.904;6.038;2023-04-28T01:33:01;99410.75;;;11.56;71.50
59419;BME280;45224;50.904;6.038;2023-04-28T01:34:31;99400.41;;;11.54;71.76
59419;BME280;45224;50.904;6.038;2023-04-28T01:36:02;99395.19;;;11.56;71.71
59419;BME280;45224;50.904;6.038;2023-04-28T01:37:32;99404.72;;;11.54;72.57
59419;BME280;45224;50.904;6.038;2023-04-28T01:39:05;99403.91;;;11.51;73.10
59419;BME280;45224;50.904;6.038;2023-04-28T01:40:36;99408.16;;;11.54;72.40
59419;BME280;45224;50.904;6.038;2023-04-28T01:42:06;99414.22;;;11.55;71.69
59419;BME280;45224;50.904;6.038;2023-04-28T01:43:37;99412.53;;;11.47;73.35
59419;BME280;45224;50.904;6.038;2023-04-28T01:45:08;99410.81;;;11.46;73.82
59419;BME280;45224;50.904;6.038;2023-04-28T01:46:40;99398.84;;;11.36;74.76
59419;BME280;45224;50.904;6.038;2023-04-28T01:48:10;99404.03;;;11.36;74.50
59419;BME280;45224;50.904;6.038;2023-04-28T01:49:41;99405.75;;;11.37;74.67
59419;BME280;45224;50.904;6.038;2023-04-28T01:51:11;99406.63;;;11.36;75.53
59419;BME280;45224;50.904;6.038;2023-04-28T01:52:42;99395.44;;;11.34;75.70
59419;BME280;45224;50.904;6.038;2023-04-28T01:54:13;99398.81;;;11.39;74.84
59419;BME280;45224;50.904;6.038;2023-04-28T01:55:43;99390.25;;;11.34;76.29
59419;BME280;45224;50.904;6.038;2023-04-28T01:57:14;99383.34;;;11.33;76.75
59419;BME280;45224;50.904;6.038;2023-04-28T01:58:45;99386.00;;;11.27;78.17
59419;BME280;45224;50.904;6.038;2023-04-28T02:00:16;99380.16;;;11.06;79.95
59419;BME280;45224;50.904;6.038;2023-04-28T02:01:51;99390.44;;;11.12;78.71
59419;BME280;45224;50.904;6.038;2023-04-28T02:03:23;99390.47;;;11.09;79.30
59419;BME280;45224;50.904;6.038;2023-04-28T02:04:53;99387.84;;;11.11;77.95
59419;BME280;45224;50.904;6.038;2023-04-28T02:06:24;99397.34;;;11.10;78.88
59419;BME280;45224;50.904;6.038;2023-04-28T02:07:54;99387.84;;;11.12;78.49
59419;BME280;45224;50.904;6.038;2023-04-28T02:09:25;99385.34;;;11.06;80.13
59419;BME280;45224;50.904;6.038;2023-04-28T02:10:55;99385.34;;;11.03;80.99
59419;BME280;45224;50.904;6.038;2023-04-28T02:12:27;99385.34;;;11.03;80.81
59419;BME280;45224;50.904;6.038;2023-04-28T02:13:57;99384.47;;;11.03;80.60
59419;BME280;45224;50.904;6.038;2023-04-28T02:15:28;99387.84;;;11.11;79.61
59419;BME280;45224;50.904;6.038;2023-04-28T02:16:58;99380.06;;;11.12;79.84
59419;BME280;45224;50.904;6.038;2023-04-28T02:18:30;99368.91;;;11.10;80.06
59419;BME280;45224;50.904;6.038;2023-04-28T02:20:04;99364.56;;;11.12;80.12
59419;BME280;45224;50.904;6.038;2023-04-28T02:21:36;99366.28;;;11.12;80.83
59419;BME280;45224;50.904;6.038;2023-04-28T02:23:06;99366.47;;;10.92;83.81
59419;BME280;45224;50.904;6.038;2023-04-28T02:24:36;99369.88;;;10.99;82.44
59419;BME280;45224;50.904;6.038;2023-04-28T02:26:07;99369.84;;;11.03;81.77
59419;BME280;45224;50.904;6.038;2023-04-28T02:27:38;99371.56;;;11.01;82.80
59419;BME280;45224;50.904;6.038;2023-04-28T02:29:08;99372.41;;;11.05;82.30
59419;BME280;45224;50.904;6.038;2023-04-28T02:30:39;99377.56;;;11.08;81.98
59419;BME280;45224;50.904;6.038;2023-04-28T02:32:09;99375.81;;;11.10;81.81
59419;BME280;45224;50.904;6.038;2023-04-28T02:33:40;99368.94;;;11.06;82.73
59419;BME280;45224;50.904;6.038;2023-04-28T02:35:13;99379.25;;;11.10;82.47
59419;BME280;45224;50.904;6.038;2023-04-28T02:36:44;99381.81;;;11.10;82.22
59419;BME280;45224;50.904;6.038;2023-04-28T02:38:14;99379.22;;;11.12;82.17
59419;BME280;45224;50.904;6.038;2023-04-28T02:39:47;99374.13;;;11.04;84.06
59419;BME280;45224;50.904;6.038;2023-04-28T02:41:18;99380.97;;;11.10;82.84
59419;BME280;45224;50.904;6.038;2023-04-28T02:42:48;99376.63;;;11.13;83.21
59419;BME280;45224;50.904;6.038;2023-04-28T02:44:19;99383.53;;;11.16;82.69
59419;BME280;45224;50.904;6.038;2023-04-28T02:45:50;99381.75;;;11.20;82.53
59419;BME280;45224;50.904;6.038;2023-04-28T02:47:20;99380.91;;;11.21;83.05
59419;BME280;45224;50.904;6.038;2023-04-28T02:48:51;99378.25;;;11.24;82.85
59419;BME280;45224;50.904;6.038;2023-04-28T02:50:21;99379.97;;;11.25;83.14
59419;BME280;45224;50.904;6.038;2023-04-28T02:51:52;99376.53;;;11.26;83.53
59419;BME280;45224;50.904;6.038;2023-04-28T02:53:22;99363.63;;;11.21;83.75
59419;BME280;45224;50.904;6.038;2023-04-28T02:54:53;99362.69;;;11.27;82.78
59419;BME280;45224;50.904;6.038;2023-04-28T02:56:26;99357.53;;;11.27;82.73
59419;BME280;45224;50.904;6.038;2023-04-28T02:57:59;99360.09;;;11.30;82.96
59419;BME280;45224;50.904;6.038;2023-04-28T02:59:29;99367.00;;;11.31;83.22
59419;BME280;45224;50.904;6.038;2023-04-28T03:01:00;99365.25;;;11.31;83.38
59419;BME280;45224;50.904;6.038;2023-04-28T03:02:31;99361.78;;;11.32;83.69
59419;BME280;45224;50.904;6.038;2023-04-28T03:04:01;99341.97;;;11.30;83.67
59419;BME280;45224;50.904;6.038;2023-04-28T03:05:32;99347.09;;;11.36;82.75
59419;BME280;45224;50.904;6.038;2023-04-28T03:07:02;99340.16;;;11.38;83.08
59419;BME280;45224;50.904;6.038;2023-04-28T03:08:33;99329.81;;;11.38;82.87
59419;BME280;45224;50.904;6.038;2023-04-28T03:10:03;99322.16;;;11.30;83.70
59419;BME280;45224;50.904;6.038;2023-04-28T03:11:34;99336.72;;;11.38;83.43
59419;BME280;45224;50.904;6.038;2023-04-28T03:13:05;99330.69;;;11.39;83.78
59419;BME280;45224;50.904;6.038;2023-04-28T03:14:36;99321.22;;;11.33;84.17
59419;BME280;45224;50.904;6.038;2023-04-28T03:16:06;99328.16;;;11.31;85.31
59419;BME280;45224;50.904;6.038;2023-04-28T03:17:37;99319.63;;;11.24;86.75
59419;BME280;45224;50.904;6.038;2023-04-28T03:19:11;99314.44;;;11.26;85.62
59419;BME280;45224;50.904;6.038;2023-04-28T03:20:41;99313.50;;;11.28;86.07
59419;BME280;45224;50.904;6.038;2023-04-28T03:22:13;99314.31;;;11.35;84.34
59419;BME280;45224;50.904;6.038;2023-04-28T03:23:44;99309.19;;;11.32;85.20
59419;BME280;45224;50.904;6.038;2023-04-28T03:25:15;99295.34;;;11.33;84.83
59419;BME280;45224;50.904;6.038;2023-04-28T03:26:51;99293.75;;;11.23;86.44
59419;BME280;45224;50.904;6.038;2023-04-28T03:28:22;99280.00;;;11.18;87.36
59419;BME280;45224;50.904;6.038;2023-04-28T03:29:52;99266.41;;;10.99;88.93
59419;BME280;45224;50.904;6.038;2023-04-28T03:31:23;99253.50;;;10.94;89.32
59419;BME280;45224;50.904;6.038;2023-04-28T03:32:53;99249.22;;;10.90;90.14
59419;BME280;45224;50.904;6.038;2023-04-28T03:34:24;99236.28;;;10.90;89.62
59419;BME280;45224;50.904;6.038;2023-04-28T03:35:54;99242.41;;;10.83;90.31
59419;BME280;45224;50.904;6.038;2023-04-28T03:37:25;99230.34;;;10.82;90.08
59419;BME280;45224;50.904;6.038;2023-04-28T03:38:56;99225.31;;;10.69;92.11
59419;BME280;45224;50.904;6.038;2023-04-28T03:40:26;99243.38;;;10.74;91.72
59419;BME280;45224;50.904;6.038;2023-04-28T03:42:17;99269.28;;;10.66;93.39
59419;BME280;45224;50.904;6.038;2023-04-28T03:44:09;99284.91;;;10.54;94.64
59419;BME280;45224;50.904;6.038;2023-04-28T03:45:51;99290.97;;;10.50;94.79
59419;BME280;45224;50.904;6.038;2023-04-28T03:47:22;99282.34;;;10.48;95.30
59419;BME280;45224;50.904;6.038;2023-04-28T03:48:52;99272.03;;;10.45;96.27
59419;BME280;45224;50.904;6.038;2023-04-28T03:50:23;99280.72;;;10.37;97.83
59419;BME280;45224;50.904;6.038;2023-04-28T03:51:54;99274.75;;;10.23;99.45
59419;BME280;45224;50.904;6.038;2023-04-28T03:53:24;99285.06;;;10.29;99.01
59419;BME280;45224;50.904;6.038;2023-04-28T03:54:55;99276.41;;;10.38;97.84
59419;BME280;45224;50.904;6.038;2023-04-28T03:56:25;99272.03;;;10.45;96.36
59419;BME280;45224;50.904;6.038;2023-04-28T03:57:56;99278.94;;;10.46;97.69
59419;BME280;45224;50.904;6.038;2023-04-28T03:59:26;99284.94;;;10.49;97.03
59419;BME280;45224;50.904;6.038;2023-04-28T04:00:57;99284.06;;;10.49;97.68
59419;BME280;45224;50.904;6.038;2023-04-28T04:02:30;99287.47;;;10.57;96.25
59419;BME280;45224;50.904;6.038;2023-04-28T04:04:00;99290.00;;;10.63;94.97
59419;BME280;45224;50.904;6.038;2023-04-28T04:05:31;99297.69;;;10.72;94.30
59419;BME280;45224;50.904;6.038;2023-04-28T04:07:02;99283.06;;;10.68;95.04
59419;BME280;45224;50.904;6.038;2023-04-28T04:08:33;99290.75;;;10.74;95.21
59419;BME280;45224;50.904;6.038;2023-04-28T04:10:04;99297.66;;;10.74;95.85
59419;BME280;45224;50.904;6.038;2023-04-28T04:11:36;99303.63;;;10.82;94.12
59419;BME280;45224;50.904;6.038;2023-04-28T04:13:07;99303.66;;;10.79;94.28
59419;BME280;45224;50.904;6.038;2023-04-28T04:14:37;99298.47;;;10.81;94.93
59419;BME280;45224;50.904;6.038;2023-04-28T04:16:09;99300.09;;;10.91;93.05
59419;BME280;45224;50.904;6.038;2023-04-28T04:17:40;99298.34;;;10.93;92.82
59419;BME280;45224;50.904;6.038;2023-04-28T04:19:10;99299.28;;;10.86;94.26
59419;BME280;45224;50.904;6.038;2023-04-28T04:20:45;99297.47;;;10.94;93.18
59419;BME280;45224;50.904;6.038;2023-04-28T04:22:15;99288.91;;;10.89;93.76
59419;BME280;45224;50.904;6.038;2023-04-28T04:23:46;99294.22;;;10.73;95.21
59419;BME280;45224;50.904;6.038;2023-04-28T04:25:16;99289.00;;;10.76;95.09
59419;BME280;45224;50.904;6.038;2023-04-28T04:26:50;99292.38;;;10.85;94.52
59419;BME280;45224;50.904;6.038;2023-04-28T04:28:37;99295.00;;;10.80;95.17
59419;BME280;45224;50.904;6.038;2023-04-28T04:30:09;99295.88;;;10.81;95.18
59419;BME280;45224;50.904;6.038;2023-04-28T04:31:41;99290.72;;;10.79;95.52
59419;BME280;45224;50.904;6.038;2023-04-28T04:33:11;99284.66;;;10.80;95.04
59419;BME280;45224;50.904;6.038;2023-04-28T04:34:41;99295.84;;;10.87;94.16
59419;BME280;45224;50.904;6.038;2023-04-28T04:36:12;99288.88;;;10.92;94.06
59419;BME280;45224;50.904;6.038;2023-04-28T04:37:43;99292.38;;;10.86;94.68
59419;BME280;45224;50.904;6.038;2023-04-28T04:39:13;99297.53;;;10.89;94.51
59419;BME280;45224;50.904;6.038;2023-04-28T04:40:44;99293.25;;;10.85;94.71
59419;BME280;45224;50.904;6.038;2023-04-28T04:42:15;99294.94;;;10.88;95.34
59419;BME280;45224;50.904;6.038;2023-04-28T04:43:50;99293.25;;;10.87;95.27
59419;BME280;45224;50.904;6.038;2023-04-28T04:45:21;99285.44;;;10.90;95.00
59419;BME280;45224;50.904;6.038;2023-04-28T04:46:52;99282.00;;;10.89;95.61
59419;BME280;45224;50.904;6.038;2023-04-28T04:48:24;99272.50;;;10.90;95.33
59419;BME280;45224;50.904;6.038;2023-04-28T04:49:54;99275.16;;;10.87;96.39
59419;BME280;45224;50.904;6.038;2023-04-28T04:51:26;99285.53;;;10.81;97.36
59419;BME280;45224;50.904;6.038;2023-04-28T04:52:57;99276.84;;;10.88;97.33
59419;BME280;45224;50.904;6.038;2023-04-28T04:54:29;99274.22;;;10.91;96.37
59419;BME280;45224;50.904;6.038;2023-04-28T04:56:01;99263.09;;;10.83;96.83
59419;BME280;45224;50.904;6.038;2023-04-28T04:57:32;99280.28;;;10.88;97.37
59419;BME280;45224;50.904;6.038;2023-04-28T04:59:12;99270.88;;;10.80;99.01
59419;BME280;45224;50.904;6.038;2023-04-28T05:00:59;99270.84;;;10.86;98.37
59419;BME280;45224;50.904;6.038;2023-04-28T05:02:30;99263.06;;;10.86;98.56
59419;BME280;45224;50.904;6.038;2023-04-28T05:04:01;99273.41;;;10.89;97.77
59419;BME280;45224;50.904;6.038;2023-04-28T05:05:31;99275.91;;;10.96;96.74
59419;BME280;45224;50.904;6.038;2023-04-28T05:07:37;99274.19;;;10.97;97.20
59419;BME280;45224;50.904;6.038;2023-04-28T05:09:08;99276.75;;;10.97;97.72
59419;BME280;45224;50.904;6.038;2023-04-28T05:10:39;99275.94;;;10.93;98.92
59419;BME280;45224;50.904;6.038;2023-04-28T05:12:09;99268.16;;;10.96;98.11
59419;BME280;45224;50.904;6.038;2023-04-28T05:13:40;99259.56;;;10.90;99.24
59419;BME280;45224;50.904;6.038;2023-04-28T05:15:10;99262.28;;;10.81;100.00
59419;BME280;45224;50.904;6.038;2023-04-28T05:16:46;99260.50;;;10.84;100.00
59419;BME280;45224;50.904;6.038;2023-04-28T05:18:25;99260.47;;;10.89;99.96
59419;BME280;45224;50.904;6.038;2023-04-28T05:19:56;99264.75;;;10.90;99.97
59419;BME280;45224;50.904;6.038;2023-04-28T05:21:27;99261.31;;;10.88;100.00
59419;BME280;45224;50.904;6.038;2023-04-28T05:22:58;99259.53;;;10.96;99.86
59419;BME280;45224;50.904;6.038;2023-04-28T05:24:28;99259.53;;;10.96;99.78
59419;BME280;45224;50.904;6.038;2023-04-28T05:25:59;99263.88;;;10.92;100.00
59419;BME280;45224;50.904;6.038;2023-04-28T05:27:30;99256.13;;;10.91;100.00
59419;BME280;45224;50.904;6.038;2023-04-28T05:29:00;99256.06;;;10.97;99.89
59419;BME280;45224;50.904;6.038;2023-04-28T05:30:31;99260.38;;;10.98;100.00
59419;BME280;45224;50.904;6.038;2023-04-28T05:32:01;99251.72;;;10.99;100.00
59419;BME280;45224;50.904;6.038;2023-04-28T05:33:32;99250.88;;;10.99;100.00
59419;BME280;45224;50.904;6.038;2023-04-28T05:35:03;99258.56;;;11.06;98.86
59419;BME280;45224;50.904;6.038;2023-04-28T05:36:33;99259.38;;;11.10;98.48
59419;BME280;45224;50.904;6.038;2023-04-28T05:38:04;99265.38;;;11.15;98.18
59419;BME280;45224;50.904;6.038;2023-04-28T05:39:36;99265.34;;;11.17;99.11
59419;BME280;45224;50.904;6.038;2023-04-28T05:41:08;99266.31;;;11.08;100.00
59419;BME280;45224;50.904;6.038;2023-04-28T05:42:39;99258.50;;;11.11;100.00
59419;BME280;45224;50.904;6.038;2023-04-28T05:44:09;99270.53;;;11.15;99.70
59419;BME280;45224;50.904;6.038;2023-04-28T05:45:40;99267.03;;;11.21;98.47
59419;BME280;45224;50.904;6.038;2023-04-28T05:47:10;99268.75;;;11.20;99.59
59419;BME280;45224;50.904;6.038;2023-04-28T05:48:41;99267.91;;;11.18;99.94
59419;BME280;45224;50.904;6.038;2023-04-28T05:50:12;99278.22;;;11.24;98.68
59419;BME280;45224;50.904;6.038;2023-04-28T05:51:42;99268.69;;;11.26;98.72
59419;BME280;45224;50.904;6.038;2023-04-28T05:53:13;99261.78;;;11.25;99.07
59419;BME280;45224;50.904;6.038;2023-04-28T05:54:44;99264.34;;;11.28;98.85
59419;BME280;45224;50.904;6.038;2023-04-28T05:56:15;99264.47;;;11.21;100.00
59419;BME280;45224;50.904;6.038;2023-04-28T05:57:46;99273.06;;;11.23;100.00
59419;BME280;45224;50.904;6.038;2023-04-28T05:59:17;99273.09;;;11.20;100.00
59419;BME280;45224;50.904;6.038;2023-04-28T06:00:47;99272.13;;;11.27;99.48
59419;BME280;45224;50.904;6.038;2023-04-28T06:02:18;99276.47;;;11.25;100.00
59419;BME280;45224;50.904;6.038;2023-04-28T06:03:48;99269.50;;;11.30;99.61
59419;BME280;45224;50.904;6.038;2023-04-28T06:05:19;99273.81;;;11.32;99.94
59419;BME280;45224;50.904;6.038;2023-04-28T06:06:52;99264.34;;;11.30;99.37
59419;BME280;45224;50.904;6.038;2023-04-28T06:08:23;99278.06;;;11.35;100.00
59419;BME280;45224;50.904;6.038;2023-04-28T06:09:54;99278.03;;;11.38;100.00
59419;BME280;45224;50.904;6.038;2023-04-28T06:11:24;99267.72;;;11.35;99.58
59419;BME280;45224;50.904;6.038;2023-04-28T06:12:55;99269.41;;;11.39;100.00
59419;BME280;45224;50.904;6.038;2023-04-28T06:14:25;99279.69;;;11.45;99.96
59419;BME280;45224;50.904;6.038;2023-04-28T06:15:56;99276.19;;;11.49;99.52
59419;BME280;45224;50.904;6.038;2023-04-28T06:17:26;99280.53;;;11.46;99.84
59419;BME280;45224;50.904;6.038;2023-04-28T06:18:57;99281.31;;;11.52;100.00
59419;BME280;45224;50.904;6.038;2023-04-28T06:20:28;99277.00;;;11.55;100.00
59419;BME280;45224;50.904;6.038;2023-04-28T06:21:59;99273.44;;;11.63;99.21
59419;BME280;45224;50.904;6.038;2023-04-28T06:23:29;99267.38;;;11.66;99.50
59419;BME280;45224;50.904;6.038;2023-04-28T06:25:00;99266.53;;;11.62;100.00
59419;BME280;45224;50.904;6.038;2023-04-28T06:26:37;99261.53;;;11.48;100.00
59419;BME280;45224;50.904;6.038;2023-04-28T06:28:08;99254.59;;;11.50;100.00
59419;BME280;45224;50.904;6.038;2023-04-28T06:29:38;99251.06;;;11.58;100.00
59419;BME280;45224;50.904;6.038;2023-04-28T06:31:09;99254.44;;;11.66;100.00
59419;BME280;45224;50.904;6.038;2023-04-28T06:32:39;99270.78;;;11.68;100.00
59419;BME280;45224;50.904;6.038;2023-04-28T06:34:10;99280.19;;;11.75;99.23
59419;BME280;45224;50.904;6.038;2023-04-28T06:35:41;99281.03;;;11.77;99.03
59419;BME280;45224;50.904;6.038;2023-04-28T06:37:11;99283.53;;;11.83;98.56
59419;BME280;45224;50.904;6.038;2023-04-28T06:38:43;99288.75;;;11.80;99.35
59419;BME280;45224;50.904;6.038;2023-04-28T06:40:13;99294.72;;;11.87;98.86
59419;BME280;45224;50.904;6.038;2023-04-28T06:41:50;99291.22;;;11.90;98.14
59419;BME280;45224;50.904;6.038;2023-04-28T06:43:22;99286.91;;;11.92;98.27
59419;BME280;45224;50.904;6.038;2023-04-28T06:45:06;99280.84;;;11.90;98.89
59419;BME280;45224;50.904;6.038;2023-04-28T06:46:38;99280.00;;;11.89;98.72
59419;BME280;45224;50.904;6.038;2023-04-28T06:48:09;99284.31;;;11.92;98.48
59419;BME280;45224;50.904;6.038;2023-04-28T06:49:42;99283.38;;;11.97;97.93
59419;BME280;45224;50.904;6.038;2023-04-28T06:51:13;99276.47;;;11.96;97.89
59419;BME280;45224;50.904;6.038;2023-04-28T06:52:44;99285.88;;;12.03;98.18
59419;BME280;45224;50.904;6.038;2023-04-28T06:54:14;99291.00;;;12.08;97.92
59419;BME280;45224;50.904;6.038;2023-04-28T06:55:47;99294.44;;;12.10;97.41
59419;BME280;45224;50.904;6.038;2023-04-28T06:57:18;99287.53;;;12.09;98.75
59419;BME280;45224;50.904;6.038;2023-04-28T06:58:50;99287.59;;;12.04;99.08
59419;BME280;45224;50.904;6.038;2023-04-28T07:00:20;99275.44;;;12.11;98.45
59419;BME280;45224;50.904;6.038;2023-04-28T07:01:51;99277.00;;;12.21;97.67
59419;BME280;45224;50.904;6.038;2023-04-28T07:03:21;99277.00;;;12.20;97.97
59419;BME280;45224;50.904;6.038;2023-04-28T07:04:52;99271.72;;;12.28;98.17
59419;BME280;45224;50.904;6.038;2023-04-28T07:06:22;99278.53;;;12.33;97.69
59419;BME280;45224;50.904;6.038;2023-04-28T07:07:53;99266.53;;;12.28;99.43
59419;BME280;45224;50.904;6.038;2023-04-28T07:09:23;99282.81;;;12.36;98.65
59419;BME280;45224;50.904;6.038;2023-04-28T07:10:54;99275.00;;;12.39;99.23
59419;BME280;45224;50.904;6.038;2023-04-28T07:12:26;99270.56;;;12.46;98.94
59419;BME280;45224;50.904;6.038;2023-04-28T07:13:56;99276.66;;;12.43;100.00
59419;BME280;45224;50.904;6.038;2023-04-28T07:15:27;99271.47;;;12.43;99.66
59419;BME280;45224;50.904;6.038;2023-04-28T07:16:58;99266.13;;;12.52;98.70
59419;BME280;45224;50.904;6.038;2023-04-28T07:18:28;99273.16;;;12.47;99.29
59419;BME280;45224;50.904;6.038;2023-04-28T07:19:59;99271.34;;;12.51;100.00
59419;BME280;45224;50.904;6.038;2023-04-28T07:21:29;99263.53;;;12.54;100.00
59419;BME280;45224;50.904;6.038;2023-04-28T07:23:00;99264.19;;;12.65;99.12
59419;BME280;45224;50.904;6.038;2023-04-28T07:24:31;99259.75;;;12.73;99.15
59419;BME280;45224;50.904;6.038;2023-04-28T07:26:01;99263.06;;;12.80;99.21
59419;BME280;45224;50.904;6.038;2023-04-28T07:27:32;99261.16;;;12.91;98.80
59419;BME280;45224;50.904;6.038;2023-04-28T07:29:02;99260.28;;;12.92;99.23
59419;BME280;45224;50.904;6.038;2023-04-28T07:30:33;99263.78;;;12.88;99.42
59419;BME280;45224;50.904;6.038;2023-04-28T07:32:04;99258.50;;;12.94;98.88
59419;BME280;45224;50.904;6.038;2023-04-28T07:33:35;99264.47;;;12.98;99.39
59419;BME280;45224;50.904;6.038;2023-04-28T07:35:05;99261.81;;;13.03;99.12
59419;BME280;45224;50.904;6.038;2023-04-28T07:36:36;99265.19;;;13.06;98.61
59419;BME280;45224;50.904;6.038;2023-04-28T07:38:06;99270.34;;;13.08;99.27
59419;BME280;45224;50.904;6.038;2023-04-28T07:39:37;99271.16;;;13.13;98.42
59419;BME280;45224;50.904;6.038;2023-04-28T07:41:09;99273.59;;;13.19;97.89
59419;BME280;45224;50.904;6.038;2023-04-28T07:42:40;99274.53;;;13.17;98.88
59419;BME280;45224;50.904;6.038;2023-04-28T07:44:10;99270.19;;;13.17;98.65
59419;BME280;45224;50.904;6.038;2023-04-28T07:45:41;99273.69;;;13.16;100.00
59419;BME280;45224;50.904;6.038;2023-04-28T07:47:14;99272.81;;;13.15;99.49
59419;BME280;45224;50.904;6.038;2023-04-28T07:48:45;99271.03;;;13.18;100.00
59419;BME280;45224;50.904;6.038;2023-04-28T07:50:15;99278.78;;;13.19;100.00
59419;BME280;45224;50.904;6.038;2023-04-28T07:51:47;99275.31;;;13.20;100.00
59419;BME280;45224;50.904;6.038;2023-04-28T07:53:17;99267.50;;;13.22;100.00
59419;BME280;45224;50.904;6.038;2023-04-28T07:54:48;99270.91;;;13.25;100.00
59419;BME280;45224;50.904;6.038;2023-04-28T07:56:18;99271.75;;;13.27;100.00
59419;BME280;45224;50.904;6.038;2023-04-28T07:57:49;99278.63;;;13.28;100.00
59419;BME280;45224;50.904;6.038;2023-04-28T07:59:19;99277.72;;;13.31;100.00
59419;BME280;45224;50.904;6.038;2023-04-28T08:00:50;99274.22;;;13.32;100.00
59419;BME280;45224;50.904;6.038;2023-04-28T08:02:20;99273.34;;;13.35;100.00
59419;BME280;45224;50.904;6.038;2023-04-28T08:03:51;99273.34;;;13.35;100.00